This demonstration page uses our WeatherBlox Daily Observations layout. Learn more.

Left ArrowRight Arrow

38.88101, -77.10428

Hourly Observations for December 20, 2019

Temp ( °F °C ) Dew Point ( °F °C ) Humidity (%) Winds ( mph kmh ) Pressure ( in mb ) Visibility ( mi km ) Precip ( " mm )
12:52 am 00:52 Mostly Clear 29 -1.7 13 -10.6 51 51 Calm 30.47 1032 10 16.0934 0 0
1:52 am 01:52 Mostly Clear 29 -1.7 14 -10 54 54 Calm 30.48 1032 10 16.0934 0 0
2:52 am 02:52 Mostly Clear 26 -3.3 15 -9.4 63 63 NNE 3 6 30.5 1033 10 16.0934 0 0
3:52 am 03:52 Partly Cloudy 27 -2.8 17 -8.3 66 66 ENE 5 7 30.5 1033 10 16.0934 0 0
4:52 am 04:52 Partly Cloudy 27 -2.8 18 -7.8 69 69 ENE 5 7 30.51 1033 10 16.0934 0 0
5:52 am 05:52 Partly Cloudy 25 -3.9 18 -7.8 75 75 N 5 7 30.53 1034 10 16.0934 0 0
6:52 am 06:52 Mostly Clear 25 -3.9 18 -7.8 75 75 ENE 6 9 30.55 1035 10 16.0934 0 0
7:52 am 07:52 Mostly Sunny 27 -2.8 19 -7.2 72 72 NE 5 7 30.57 1035 10 16.0934 0 0
8:52 am 08:52 Sunny 30 -1.1 20 -6.7 66 66 NE 6 9 30.6 1036 10 16.0934 0 0
9:52 am 09:52 Sunny 33 0.6 20 -6.7 58 58 NE 8 13 30.61 1037 10 16.0934 0 0
10:52 am 10:52 Mostly Sunny 37 2.8 19 -7.2 48 48 ENE 6 9 30.61 1037 10 16.0934 0 0
11:52 am 11:52 Mostly Sunny 41 5 20 -6.7 43 43 NE 8 13 30.59 1036 10 16.0934 0 0
12:52 pm 12:52 Mostly Sunny 42 5.6 21 -6.1 43 43 N 7 11 30.57 1035 10 16.0934 0 0
1:52 pm 13:52 Mostly Sunny 42 5.6 20 -6.7 41 41 NNE 6 9 30.56 1035 10 16.0934 0 0
2:52 pm 14:52 Partly Cloudy 42 5.6 20 -6.7 41 41 N 10 17 30.58 1035 10 16.0934 0 0
3:52 pm 15:52 Partly Cloudy 40 4.4 21 -6.1 47 47 N 9 15 30.6 1036 10 16.0934 0 0
4:52 pm 16:52 Partly Cloudy 36 2.2 21 -6.1 55 55 N 8 13 30.61 1037 10 16.0934 0 0
6:52 pm 18:52 Clear 33 0.6 22 -5.6 64 64 N 6 9 30.63 1037 10 16.0934 0 0
7:52 pm 19:52 Partly Cloudy 33 0.6 21 -6.1 61 61 N 6 9 30.64 1038 10 16.0934 0 0
8:52 pm 20:52 Mostly Cloudy 33 0.6 22 -5.6 64 64 NE 6 9 30.64 1038 10 16.0934 0 0
9:52 pm 21:52 Mostly Cloudy 33 0.6 22 -5.6 64 64 NE 8 13 30.63 1037 10 16.0934 0 0
10:52 pm 22:52 Cloudy 32 0 20 -6.7 61 61 NE 6 9 30.62 1037 10 16.0934 0 0
11:52 pm 23:52 Cloudy 32 0 19 -7.2 59 59 Calm 30.63 1037 10 16.0934 0 0

Powered by AerisWeather